Ballerina — SKNY — position and weather

sailwx.info

Track history (hours):
 
Tides and Currents Weather Stations Pressure Air Temp Water Temp Dewpoint Dewpoint Depression Visibility Wind Speed Wind Dir Waves Ship Positions

Ballerina

Last reported at 2017-Dec-10 15:58 UTC. Time now 2017-Dec-11 00:31 UTC.
Position N 59°20' E 018°05'.

Type: Passenger vessel. MMSI: 265550720.

Date/timePositionNaut miles runAvg speedWind from/ knotsBaromVisibWave heightAir tempDewpointWater temp
2017-Dec-10 15:58N 59°20' E 018°05'0 0.0
2017-Dec-10 15:25N 59°20' E 018°05'0 0.0
2017-Dec-10 14:58N 59°20' E 018°05'0 0.0
2017-Dec-10 14:28N 59°20' E 018°05'0 0.0
2017-Dec-10 13:58N 59°20' E 018°05'0 0.0
2017-Dec-10 13:28N 59°20' E 018°05'0 0.0
2017-Dec-10 12:58N 59°20' E 018°05'0 0.0
2017-Dec-09 14:34N 59°20' E 018°05'0 0.0
2017-Dec-09 14:28N 59°20' E 018°05'0 0.0
2017-Dec-09 13:58N 59°20' E 018°05'0 0.0
2017-Dec-09 13:28N 59°20' E 018°05'0 0.0
2017-Dec-09 12:58N 59°20' E 018°05'0 0.0
2017-Dec-09 12:28N 59°20' E 018°05'0 0.0
2017-Dec-09 11:58N 59°20' E 018°05'0 0.0
2017-Dec-09 11:28N 59°20' E 018°05'0 0.6
2017-Dec-09 11:00N 59°20' E 018°05'2 3.5
2017-Dec-09 10:30N 59°19' E 018°07'1 2.4
2017-Dec-09 10:00N 59°20' E 018°05'1 1.7
2017-Dec-09 09:30N 59°19' E 018°07'2 3.5
2017-Dec-09 08:58N 59°21' E 018°09'2 3.4
2017-Dec-09 08:30N 59°19' E 018°08'2 3.5
2017-Dec-09 07:58N 59°20' E 018°05'0 0.0
2017-Dec-08 18:07N 59°20' E 018°05'0 0.0
2017-Dec-08 17:55N 59°20' E 018°05'0 1.1
2017-Dec-08 17:30N 59°19' E 018°06'0 0.1
2017-Dec-08 17:00N 59°20' E 018°05'1 2.0
2017-Dec-08 16:31N 59°19' E 018°07'0 0.6
2017-Dec-08 16:01N 59°19' E 018°08'2 3.7
2017-Dec-08 15:30N 59°20' E 018°05'2 4.1
2017-Dec-08 15:00N 59°19' E 018°08'1 1.8
2017-Dec-08 14:30N 59°19' E 018°07'1 2.8
2017-Dec-08 14:00N 59°20' E 018°05'3 5.0
2017-Dec-08 13:29N 59°19' E 018°10'1 3.1
2017-Dec-08 13:00N 59°21' E 018°09'2 3.8
2017-Dec-08 12:30N 59°19' E 018°07'1 2.2
2017-Dec-08 12:00N 59°20' E 018°05'2 4.3
2017-Dec-08 11:30N 59°19' E 018°09'1 2.8
2017-Dec-08 11:00N 59°21' E 018°09'2 3.6
2017-Dec-08 10:30N 59°19' E 018°07'2 2.9
2017-Dec-08 09:58N 59°20' E 018°05'0 0.0
2017-Dec-08 09:28N 59°20' E 018°05'0 0.0
2017-Dec-08 09:00N 59°20' E 018°05'0 0.0
2017-Dec-08 08:30N 59°20' E 018°05'2 3.6
2017-Dec-08 08:00N 59°19' E 018°08'1 2.0
2017-Dec-08 07:30N 59°19' E 018°06'0 0.2
2017-Dec-08 07:00N 59°19' E 018°06'1 2.2
2017-Dec-08 06:29N 59°19' E 018°09'2 3.5
2017-Dec-08 05:55N 59°20' E 018°05'0 0.0
2017-Dec-08 05:28N 59°20' E 018°05'0 0.0
2017-Dec-07 17:56N 59°20' E 018°05'1 1.5
2017-Dec-07 17:30N 59°19' E 018°06'0 0.5
2017-Dec-07 17:00N 59°20' E 018°05'1 1.6
2017-Dec-07 16:30N 59°19' E 018°07'1 1.3
2017-Dec-07 16:00N 59°19' E 018°08'2 3.9
2017-Dec-07 15:30N 59°20' E 018°05'2 4.3
2017-Dec-07 15:00N 59°19' E 018°09'1 2.5
2017-Dec-07 14:30N 59°19' E 018°06'1 2.4
2017-Dec-07 14:00N 59°20' E 018°05'2 4.8
2017-Dec-07 13:30N 59°19' E 018°09'1 2.7
2017-Dec-07 13:00N 59°21' E 018°09'2 3.5
2017-Dec-07 12:30N 59°19' E 018°07'1 2.4
2017-Dec-07 12:00N 59°20' E 018°05'2 3.9
2017-Dec-07 11:30N 59°19' E 018°09'1 2.7
2017-Dec-07 11:00N 59°21' E 018°09'2 3.6
2017-Dec-07 10:30N 59°19' E 018°07'2 2.7
2017-Dec-07 09:55N 59°20' E 018°05'0 0.0
2017-Dec-07 09:28N 59°20' E 018°05'0 0.0
2017-Dec-07 08:58N 59°20' E 018°05'0 0.0
2017-Dec-07 08:30N 59°20' E 018°05'2 3.3
2017-Dec-07 08:00N 59°19' E 018°08'1 1.9
2017-Dec-07 07:30N 59°19' E 018°06'0 0.3
2017-Dec-07 07:00N 59°19' E 018°06'1 1.8
2017-Dec-07 06:28N 59°19' E 018°08'2 3.4
2017-Dec-07 05:57N 59°20' E 018°05'  
2017-Dec-04 10:30N 59°19' E 018°08'2 3.0
2017-Dec-04 09:58N 59°20' E 018°05'0 0.0
2017-Dec-04 09:28N 59°20' E 018°05'0 0.0
2017-Dec-04 08:58N 59°20' E 018°05'0 0.5
2017-Dec-04 08:27N 59°20' E 018°05'2 4.1
2017-Dec-04 08:01N 59°19' E 018°08'1 1.5
2017-Dec-04 07:30N 59°19' E 018°06'0 0.5
2017-Dec-04 07:00N 59°19' E 018°06'2 3.2
2017-Dec-04 06:30N 59°19' E 018°09'2 4.3
2017-Dec-04 05:59N 59°20' E 018°05'0 0.0
2017-Dec-04 05:30N 59°20' E 018°05'0 0.0
2017-Dec-03 11:44N 59°20' E 018°05'0 0.0
2017-Dec-03 11:29N 59°20' E 018°05'0 0.0
2017-Dec-03 09:54N 59°20' E 018°05'0 0.0
2017-Dec-03 09:30N 59°20' E 018°05'0 0.0
2017-Dec-01 18:42N 59°20' E 018°05'0 0.0
2017-Dec-01 18:30N 59°20' E 018°05'0 0.0
2017-Dec-01 18:00N 59°20' E 018°05'0 1.0
2017-Dec-01 17:30N 59°19' E 018°06'0 0.3
2017-Dec-01 17:00N 59°20' E 018°05'1 2.1
2017-Dec-01 16:30N 59°19' E 018°07'0 0.5
2017-Dec-01 16:00N 59°19' E 018°08'2 3.3
2017-Dec-01 15:30N 59°20' E 018°05'2 3.9
2017-Dec-01 15:00N 59°19' E 018°09'1 2.0
2017-Dec-01 14:30N 59°19' E 018°07'1 2.8
2017-Dec-01 14:00N 59°20' E 018°05'2 4.8
2017-Dec-01 13:30N 59°19' E 018°09'1 2.5
2017-Dec-01 12:59N 59°21' E 018°09'2 3.8
2017-Dec-01 12:30N 59°19' E 018°07'2 3.2
2017-Dec-01 12:00N 59°20' E 018°05'2 4.7
2017-Dec-01 11:30N 59°19' E 018°09'1 3.0
2017-Dec-01 11:00N 59°21' E 018°09'2 3.5
2017-Dec-01 10:30N 59°19' E 018°07'1 2.8
2017-Dec-01 09:59N 59°20' E 018°05'0 0.0
2017-Dec-01 09:29N 59°20' E 018°05'0 0.0
2017-Dec-01 08:59N 59°20' E 018°05'0 0.1
2017-Dec-01 08:30N 59°20' E 018°05'2 3.3
2017-Dec-01 08:00N 59°19' E 018°08'1 1.8
2017-Dec-01 07:30N 59°19' E 018°06'0 0.3
2017-Dec-01 07:00N 59°19' E 018°06'1 2.9
2017-Dec-01 06:30N 59°19' E 018°09'2 4.1
2017-Dec-01 05:59N 59°20' E 018°05'0 0.0
2017-Dec-01 05:30N 59°20' E 018°05'0 0.0
2017-Nov-30 17:48N 59°20' E 018°05'1 1.7
2017-Nov-30 17:30N 59°19' E 018°06'0 0.3
2017-Nov-30 17:00N 59°20' E 018°05'1 2.0
2017-Nov-30 16:30N 59°19' E 018°07'0 0.4
2017-Nov-30 16:00N 59°19' E 018°07'  
Track history (hours):
 
Tides and Currents Weather Stations Pressure Air Temp Water Temp Dewpoint Dewpoint Depression Visibility Wind Speed Wind Dir Waves Ship Positions

Ballerina

Last reported at 2017-Dec-10 15:58 UTC. Time now 2017-Dec-11 00:31 UTC.
Position N 59°20' E 018°05'.

Type: Passenger vessel. MMSI: 265550720.

Date/timePositionNaut miles runAvg speedWind from/ knotsBaromVisibWave heightAir tempDewpointWater temp
2017-Dec-10 15:58N 59°20' E 018°05'0 0.0
2017-Dec-10 15:25N 59°20' E 018°05'0 0.0
2017-Dec-10 14:58N 59°20' E 018°05'0 0.0
2017-Dec-10 14:28N 59°20' E 018°05'0 0.0
2017-Dec-10 13:58N 59°20' E 018°05'0 0.0
2017-Dec-10 13:28N 59°20' E 018°05'0 0.0
2017-Dec-10 12:58N 59°20' E 018°05'0 0.0
2017-Dec-09 14:34N 59°20' E 018°05'0 0.0
2017-Dec-09 14:28N 59°20' E 018°05'0 0.0
2017-Dec-09 13:58N 59°20' E 018°05'0 0.0
2017-Dec-09 13:28N 59°20' E 018°05'0 0.0
2017-Dec-09 12:58N 59°20' E 018°05'0 0.0
2017-Dec-09 12:28N 59°20' E 018°05'0 0.0
2017-Dec-09 11:58N 59°20' E 018°05'0 0.0
2017-Dec-09 11:28N 59°20' E 018°05'0 0.6
2017-Dec-09 11:00N 59°20' E 018°05'2 3.5
2017-Dec-09 10:30N 59°19' E 018°07'1 2.4
2017-Dec-09 10:00N 59°20' E 018°05'1 1.7
2017-Dec-09 09:30N 59°19' E 018°07'2 3.5
2017-Dec-09 08:58N 59°21' E 018°09'2 3.4
2017-Dec-09 08:30N 59°19' E 018°08'2 3.5
2017-Dec-09 07:58N 59°20' E 018°05'0 0.0
2017-Dec-08 18:07N 59°20' E 018°05'0 0.0
2017-Dec-08 17:55N 59°20' E 018°05'0 1.1
2017-Dec-08 17:30N 59°19' E 018°06'0 0.1
2017-Dec-08 17:00N 59°20' E 018°05'1 2.0
2017-Dec-08 16:31N 59°19' E 018°07'0 0.6
2017-Dec-08 16:01N 59°19' E 018°08'2 3.7
2017-Dec-08 15:30N 59°20' E 018°05'2 4.1
2017-Dec-08 15:00N 59°19' E 018°08'1 1.8
2017-Dec-08 14:30N 59°19' E 018°07'1 2.8
2017-Dec-08 14:00N 59°20' E 018°05'3 5.0
2017-Dec-08 13:29N 59°19' E 018°10'1 3.1
2017-Dec-08 13:00N 59°21' E 018°09'2 3.8
2017-Dec-08 12:30N 59°19' E 018°07'1 2.2
2017-Dec-08 12:00N 59°20' E 018°05'2 4.3
2017-Dec-08 11:30N 59°19' E 018°09'1 2.8
2017-Dec-08 11:00N 59°21' E 018°09'2 3.6
2017-Dec-08 10:30N 59°19' E 018°07'2 2.9
2017-Dec-08 09:58N 59°20' E 018°05'0 0.0
2017-Dec-08 09:28N 59°20' E 018°05'0 0.0
2017-Dec-08 09:00N 59°20' E 018°05'0 0.0
2017-Dec-08 08:30N 59°20' E 018°05'2 3.6
2017-Dec-08 08:00N 59°19' E 018°08'1 2.0
2017-Dec-08 07:30N 59°19' E 018°06'0 0.2
2017-Dec-08 07:00N 59°19' E 018°06'1 2.2
2017-Dec-08 06:29N 59°19' E 018°09'2 3.5
2017-Dec-08 05:55N 59°20' E 018°05'0 0.0
2017-Dec-08 05:28N 59°20' E 018°05'0 0.0
2017-Dec-07 17:56N 59°20' E 018°05'1 1.5
2017-Dec-07 17:30N 59°19' E 018°06'0 0.5
2017-Dec-07 17:00N 59°20' E 018°05'1 1.6
2017-Dec-07 16:30N 59°19' E 018°07'1 1.3
2017-Dec-07 16:00N 59°19' E 018°08'2 3.9
2017-Dec-07 15:30N 59°20' E 018°05'2 4.3
2017-Dec-07 15:00N 59°19' E 018°09'1 2.5
2017-Dec-07 14:30N 59°19' E 018°06'1 2.4
2017-Dec-07 14:00N 59°20' E 018°05'2 4.8
2017-Dec-07 13:30N 59°19' E 018°09'1 2.7
2017-Dec-07 13:00N 59°21' E 018°09'2 3.5
2017-Dec-07 12:30N 59°19' E 018°07'1 2.4
2017-Dec-07 12:00N 59°20' E 018°05'2 3.9
2017-Dec-07 11:30N 59°19' E 018°09'1 2.7
2017-Dec-07 11:00N 59°21' E 018°09'2 3.6
2017-Dec-07 10:30N 59°19' E 018°07'2 2.7
2017-Dec-07 09:55N 59°20' E 018°05'0 0.0
2017-Dec-07 09:28N 59°20' E 018°05'0 0.0
2017-Dec-07 08:58N 59°20' E 018°05'0 0.0
2017-Dec-07 08:30N 59°20' E 018°05'2 3.3
2017-Dec-07 08:00N 59°19' E 018°08'1 1.9
2017-Dec-07 07:30N 59°19' E 018°06'0 0.3
2017-Dec-07 07:00N 59°19' E 018°06'1 1.8
2017-Dec-07 06:28N 59°19' E 018°08'2 3.4
2017-Dec-07 05:57N 59°20' E 018°05'  
2017-Dec-04 10:30N 59°19' E 018°08'2 3.0
2017-Dec-04 09:58N 59°20' E 018°05'0 0.0
2017-Dec-04 09:28N 59°20' E 018°05'0 0.0
2017-Dec-04 08:58N 59°20' E 018°05'0 0.5
2017-Dec-04 08:27N 59°20' E 018°05'2 4.1
2017-Dec-04 08:01N 59°19' E 018°08'1 1.5
2017-Dec-04 07:30N 59°19' E 018°06'0 0.5
2017-Dec-04 07:00N 59°19' E 018°06'2 3.2
2017-Dec-04 06:30N 59°19' E 018°09'2 4.3
2017-Dec-04 05:59N 59°20' E 018°05'0 0.0
2017-Dec-04 05:30N 59°20' E 018°05'0 0.0
2017-Dec-03 11:44N 59°20' E 018°05'0 0.0
2017-Dec-03 11:29N 59°20' E 018°05'0 0.0
2017-Dec-03 09:54N 59°20' E 018°05'0 0.0
2017-Dec-03 09:30N 59°20' E 018°05'0 0.0
2017-Dec-01 18:42N 59°20' E 018°05'0 0.0
2017-Dec-01 18:30N 59°20' E 018°05'0 0.0
2017-Dec-01 18:00N 59°20' E 018°05'0 1.0
2017-Dec-01 17:30N 59°19' E 018°06'0 0.3
2017-Dec-01 17:00N 59°20' E 018°05'1 2.1
2017-Dec-01 16:30N 59°19' E 018°07'0 0.5
2017-Dec-01 16:00N 59°19' E 018°08'2 3.3
2017-Dec-01 15:30N 59°20' E 018°05'2 3.9
2017-Dec-01 15:00N 59°19' E 018°09'1 2.0
2017-Dec-01 14:30N 59°19' E 018°07'1 2.8
2017-Dec-01 14:00N 59°20' E 018°05'2 4.8
2017-Dec-01 13:30N 59°19' E 018°09'1 2.5
2017-Dec-01 12:59N 59°21' E 018°09'2 3.8
2017-Dec-01 12:30N 59°19' E 018°07'2 3.2
2017-Dec-01 12:00N 59°20' E 018°05'2 4.7
2017-Dec-01 11:30N 59°19' E 018°09'1 3.0
2017-Dec-01 11:00N 59°21' E 018°09'2 3.5
2017-Dec-01 10:30N 59°19' E 018°07'1 2.8
2017-Dec-01 09:59N 59°20' E 018°05'0 0.0
2017-Dec-01 09:29N 59°20' E 018°05'0 0.0
2017-Dec-01 08:59N 59°20' E 018°05'0 0.1
2017-Dec-01 08:30N 59°20' E 018°05'2 3.3
2017-Dec-01 08:00N 59°19' E 018°08'1 1.8
2017-Dec-01 07:30N 59°19' E 018°06'0 0.3
2017-Dec-01 07:00N 59°19' E 018°06'1 2.9
2017-Dec-01 06:30N 59°19' E 018°09'2 4.1
2017-Dec-01 05:59N 59°20' E 018°05'0 0.0
2017-Dec-01 05:30N 59°20' E 018°05'0 0.0
2017-Nov-30 17:48N 59°20' E 018°05'1 1.7
2017-Nov-30 17:30N 59°19' E 018°06'0 0.3
2017-Nov-30 17:00N 59°20' E 018°05'1 2.0
2017-Nov-30 16:30N 59°19' E 018°07'0 0.4
2017-Nov-30 16:00N 59°19' E 018°07'  

Dump ship's entire track history